createdAt,value
2018-10-21T00:02:21.416Z,94.41
2018-10-21T00:04:51.525Z,94.49
2018-10-21T00:07:21.915Z,93.51
2018-10-21T00:09:51.972Z,92.68
2018-10-21T00:12:22.009Z,93.54
2018-10-21T00:14:52.077Z,92.83
2018-10-21T00:17:22.071Z,94.09
2018-10-21T00:19:52.174Z,94.02
2018-10-21T00:22:28.435Z,93.87
2018-10-21T00:24:58.694Z,93.76
2018-10-21T00:27:28.672Z,94.29
2018-10-21T00:29:58.715Z,95.02
2018-10-21T00:32:34.129Z,94.32
2018-10-21T00:35:04.203Z,94.45
2018-10-21T00:37:34.249Z,94.75
2018-10-21T00:40:04.363Z,95.17
2018-10-21T00:42:34.451Z,95.53
2018-10-21T00:45:04.590Z,95.53
2018-10-21T00:47:34.567Z,95.48
2018-10-21T00:50:05.679Z,94.39
2018-10-21T00:52:35.713Z,95.55
2018-10-21T00:55:07.082Z,95.52
2018-10-21T00:57:37.121Z,95.76
2018-10-21T01:00:09.016Z,95.15
2018-10-21T01:02:39.105Z,94.62
2018-10-21T01:05:10.459Z,94.68
2018-10-21T01:07:40.490Z,94.70
2018-10-21T01:10:11.876Z,94.52
2018-10-21T01:12:42.234Z,94.71
2018-10-21T01:15:13.182Z,94.20
2018-10-21T01:17:43.128Z,94.32
2018-10-21T01:20:13.439Z,94.27
2018-10-21T01:22:43.427Z,93.62
2018-10-21T01:25:13.480Z,93.35
2018-10-21T01:27:43.543Z,93.88
2018-10-21T01:30:13.667Z,93.22
2018-10-21T01:32:43.834Z,92.65
2018-10-21T01:35:13.834Z,92.77
2018-10-21T01:37:43.866Z,92.15
2018-10-21T01:40:59.476Z,92.81
2018-10-21T01:43:31.534Z,92.65
2018-10-21T01:46:02.444Z,92.02
2018-10-21T01:48:33.067Z,91.66
2018-10-21T01:51:03.211Z,92.44
2018-10-21T01:53:33.240Z,91.64
2018-10-21T01:56:03.338Z,91.32
2018-10-21T01:58:33.444Z,91.83
2018-10-21T02:01:03.520Z,91.57
2018-10-21T02:03:33.562Z,91.10
2018-10-21T02:06:03.627Z,91.01
2018-10-21T02:08:33.750Z,92.01
2018-10-21T02:11:03.796Z,91.10
2018-10-21T02:13:33.984Z,91.79
2018-10-21T02:16:04.060Z,91.18
2018-10-21T02:18:34.149Z,91.48
2018-10-21T02:21:04.297Z,91.23
2018-10-21T02:23:34.306Z,90.77
2018-10-21T02:26:04.340Z,90.38
2018-10-21T02:28:34.326Z,90.31
2018-10-21T02:31:04.457Z,90.17
2018-10-21T02:33:34.540Z,90.72
2018-10-21T02:36:04.496Z,90.02
2018-10-21T02:38:34.508Z,89.96
2018-10-21T02:41:26.909Z,90.11
2018-10-21T02:43:56.974Z,90.29
2018-10-21T02:46:27.330Z,90.18
2018-10-21T02:48:58.250Z,89.27
2018-10-21T02:51:28.330Z,89.43
2018-10-21T02:53:58.348Z,88.87
2018-10-21T02:56:28.506Z,88.67
2018-10-21T02:58:58.529Z,88.79
2018-10-21T03:01:28.504Z,88.84
2018-10-21T03:03:58.497Z,88.62
2018-10-21T03:06:28.558Z,88.84
2018-10-21T03:08:58.631Z,88.66
2018-10-21T03:11:28.682Z,88.48
2018-10-21T03:13:58.684Z,88.42
2018-10-21T03:16:28.779Z,88.50
2018-10-21T03:18:58.842Z,88.91
2018-10-21T03:21:28.930Z,88.70
2018-10-21T03:23:58.928Z,88.41
2018-10-21T03:26:29.038Z,89.04
2018-10-21T03:28:59.066Z,89.05
2018-10-21T03:31:29.136Z,89.50
2018-10-21T03:33:59.296Z,88.64
2018-10-21T03:36:29.312Z,89.35
2018-10-21T03:38:59.463Z,89.62
2018-10-21T03:41:29.582Z,89.12
2018-10-21T03:43:59.608Z,89.56
2018-10-21T03:46:29.664Z,89.88
2018-10-21T03:48:59.779Z,89.16
2018-10-21T03:51:29.919Z,89.44
2018-10-21T03:54:00.053Z,90.03
2018-10-21T03:56:30.090Z,89.40
2018-10-21T03:59:00.154Z,88.64
2018-10-21T04:01:30.181Z,88.94
2018-10-21T04:04:00.318Z,89.29
2018-10-21T04:06:30.372Z,88.73
2018-10-21T04:09:00.380Z,89.07
2018-10-21T04:11:30.457Z,88.92
2018-10-21T04:14:03.104Z,89.65
2018-10-21T04:16:33.111Z,90.13
2018-10-21T04:19:03.211Z,90.35
2018-10-21T04:21:34.447Z,90.06
2018-10-21T04:24:04.499Z,90.58
2018-10-21T04:26:34.689Z,91.05
2018-10-21T04:29:04.703Z,91.71
2018-10-21T04:31:34.785Z,92.20
2018-10-21T04:34:04.948Z,92.64
2018-10-21T04:36:35.609Z,93.11
2018-10-21T04:39:33.519Z,92.96
2018-10-21T04:42:03.505Z,93.48
2018-10-21T04:44:33.481Z,94.71
2018-10-21T04:47:03.668Z,95.71
2018-10-21T04:49:33.550Z,96.34
2018-10-21T04:52:03.673Z,96.32
2018-10-21T04:54:36.479Z,96.70
2018-10-21T04:57:08.299Z,96.52
2018-10-21T04:59:41.767Z,97.22
2018-10-21T05:02:11.935Z,98.39
2018-10-21T05:04:42.064Z,98.76
2018-10-21T05:07:12.161Z,98.49
2018-10-21T05:09:42.282Z,99.06
2018-10-21T05:12:12.421Z,98.36
2018-10-21T05:14:43.379Z,98.20
2018-10-21T05:17:13.628Z,97.63
2018-10-21T05:19:44.896Z,97.41
2018-10-21T05:22:15.091Z,97.33
2018-10-21T05:24:45.221Z,96.80
2018-10-21T05:27:15.596Z,97.19
2018-10-21T05:29:52.401Z,98.23
2018-10-21T05:32:22.513Z,98.77
2018-10-21T05:34:52.602Z,100.00
2018-10-21T05:37:22.729Z,100.00
2018-10-21T05:39:52.983Z,100.00
2018-10-21T05:42:23.059Z,100.00
2018-10-21T05:44:53.165Z,99.83
2018-10-21T05:47:23.333Z,98.50
2018-10-21T05:49:53.457Z,97.89
2018-10-21T05:52:27.241Z,97.50
2018-10-21T05:54:57.590Z,97.96
2018-10-21T05:57:28.507Z,98.16
2018-10-21T06:00:02.195Z,98.75
2018-10-21T06:02:33.591Z,98.45
2018-10-21T06:05:43.699Z,97.70
2018-10-21T06:08:14.176Z,97.71
2018-10-21T06:10:48.053Z,96.99
2018-10-21T06:13:23.936Z,96.96
2018-10-21T06:15:58.756Z,97.01
2018-10-21T06:18:29.672Z,96.56
2018-10-21T06:21:03.283Z,95.89
2018-10-21T06:23:34.299Z,95.56
2018-10-21T06:26:05.621Z,95.35
2018-10-21T06:28:36.915Z,95.03
2018-10-21T06:31:06.976Z,94.52
2018-10-21T06:33:37.072Z,94.77
2018-10-21T06:36:07.065Z,94.50
2018-10-21T06:38:37.191Z,93.85
2018-10-21T06:41:07.329Z,93.74
2018-10-21T06:43:37.355Z,94.31
2018-10-21T06:46:08.103Z,93.85
2018-10-21T06:48:39.115Z,93.68
2018-10-21T06:51:09.203Z,93.42
2018-10-21T06:53:42.714Z,92.55
2018-10-21T06:56:12.796Z,92.76
2018-10-21T06:58:42.815Z,92.35
2018-10-21T07:01:13.227Z,92.50
2018-10-21T07:03:43.339Z,91.72
2018-10-21T07:06:21.377Z,91.05
2018-10-21T07:08:52.594Z,89.67
2018-10-21T07:11:22.636Z,87.60
2018-10-21T07:13:52.654Z,84.70
2018-10-21T07:16:22.822Z,82.98
2018-10-21T07:18:53.217Z,80.38
2018-10-21T07:21:23.232Z,79.55
2018-10-21T07:23:53.582Z,77.42
2018-10-21T07:26:23.574Z,76.66
2018-10-21T07:28:53.661Z,75.95
2018-10-21T07:31:24.401Z,76.39
2018-10-21T07:33:57.019Z,74.47
2018-10-21T07:36:27.801Z,73.83
2018-10-21T07:38:58.147Z,71.48
2018-10-21T07:41:28.174Z,70.88
2018-10-21T07:43:58.746Z,69.91
2018-10-21T07:46:28.834Z,69.82
2018-10-21T07:48:58.960Z,68.76
2018-10-21T07:51:29.040Z,69.16
2018-10-21T07:53:59.633Z,67.59
2018-10-21T07:56:30.449Z,67.13
2018-10-21T07:59:00.666Z,66.60
2018-10-21T08:01:30.845Z,64.62
2018-10-21T08:04:02.106Z,65.48
2018-10-21T08:06:43.226Z,64.48
2018-10-21T08:09:14.010Z,62.60
2018-10-21T08:11:44.044Z,60.29
2018-10-21T08:14:14.492Z,59.63
2018-10-21T08:16:44.529Z,58.39
2018-10-21T08:19:14.698Z,55.53
2018-10-21T08:21:44.702Z,53.92
2018-10-21T08:24:14.726Z,53.82
2018-10-21T08:26:44.735Z,51.82
2018-10-21T08:29:14.864Z,52.18
2018-10-21T08:31:44.853Z,52.61
2018-10-21T08:41:43.384Z,53.06
2018-10-21T08:44:13.665Z,52.02
2018-10-21T08:46:44.971Z,50.16
2018-10-21T08:49:16.448Z,49.37
2018-10-21T08:51:46.798Z,47.17
2018-10-21T08:54:17.156Z,48.41
2018-10-21T08:56:47.621Z,44.76
2018-10-21T08:59:17.919Z,44.32
2018-10-21T09:01:48.298Z,45.42
2018-10-21T09:04:18.776Z,44.56
2018-10-21T09:06:48.987Z,43.46
2018-10-21T09:09:19.367Z,41.47
2018-10-21T09:11:49.749Z,42.40
2018-10-21T09:14:20.045Z,42.02
2018-10-21T09:16:50.400Z,41.73
2018-10-21T09:19:20.703Z,39.76
2018-10-21T09:21:51.013Z,40.32
2018-10-21T09:24:21.362Z,41.27
2018-10-21T09:26:51.987Z,41.99
2018-10-21T09:29:22.295Z,42.22
2018-10-21T09:31:52.612Z,40.63
2018-10-21T09:34:22.933Z,39.88
2018-10-21T09:36:53.333Z,38.26
2018-10-21T09:39:23.679Z,37.96
2018-10-21T09:41:54.028Z,38.28
2018-10-21T09:44:24.511Z,38.68
2018-10-21T09:46:54.912Z,38.78
2018-10-21T09:49:25.316Z,38.02
2018-10-21T09:51:55.806Z,37.38
2018-10-21T09:54:26.103Z,36.72
2018-10-21T09:56:56.473Z,36.52
2018-10-21T09:59:26.815Z,36.67
2018-10-21T10:02:02.453Z,36.15
2018-10-21T10:04:32.766Z,34.53
2018-10-21T10:07:03.390Z,34.28
2018-10-21T10:09:33.796Z,33.70
2018-10-21T10:12:04.226Z,33.37
2018-10-21T10:14:34.647Z,33.78
2018-10-21T10:17:05.487Z,33.18
2018-10-21T10:19:35.866Z,33.19
2018-10-21T10:22:06.323Z,32.68
2018-10-21T10:24:36.851Z,31.82
2018-10-21T10:27:07.188Z,32.79
2018-10-21T10:29:37.626Z,33.72
2018-10-21T10:32:14.374Z,32.51
2018-10-21T10:34:44.644Z,32.30
2018-10-21T10:37:15.091Z,34.66
2018-10-21T10:39:45.687Z,33.81
2018-10-21T10:42:16.429Z,32.69
2018-10-21T10:44:46.828Z,32.58
2018-10-21T10:47:17.714Z,32.66
2018-10-21T10:49:48.103Z,31.62
2018-10-21T10:52:18.718Z,31.57
2018-10-21T10:54:49.200Z,32.51
2018-10-21T10:57:19.846Z,33.03
2018-10-21T10:59:50.266Z,32.55
2018-10-21T11:02:20.557Z,31.10
2018-10-21T11:04:50.882Z,32.73
2018-10-21T11:07:21.311Z,34.14
2018-10-21T11:09:51.758Z,36.93
2018-10-21T11:12:23.760Z,39.64
2018-10-21T11:14:54.197Z,40.20
2018-10-21T11:17:24.534Z,38.12
2018-10-21T11:19:54.842Z,36.01
2018-10-21T11:22:25.261Z,34.11
2018-10-21T11:24:55.608Z,33.77
2018-10-21T11:27:26.119Z,30.99
2018-10-21T11:29:56.455Z,29.11
2018-10-21T11:32:26.706Z,28.30
2018-10-21T11:34:57.056Z,28.21
2018-10-21T11:37:27.437Z,26.45
2018-10-21T11:39:57.624Z,26.41
2018-10-21T11:42:27.924Z,28.06
2018-10-21T11:44:58.307Z,26.49
2018-10-21T11:47:28.874Z,26.14
2018-10-21T11:49:59.757Z,26.38
2018-10-21T11:52:30.363Z,25.62
2018-10-21T11:55:00.789Z,25.00
2018-10-21T11:57:31.277Z,23.71
2018-10-21T12:00:01.791Z,24.41
2018-10-21T12:02:35.116Z,24.90
2018-10-21T12:05:05.559Z,24.89
2018-10-21T12:07:35.947Z,24.31
2018-10-21T12:10:09.654Z,24.05
2018-10-21T12:12:40.213Z,24.09
2018-10-21T12:15:10.601Z,23.30
2018-10-21T12:17:40.961Z,23.08
2018-10-21T12:20:11.342Z,24.94
2018-10-21T12:22:41.730Z,25.46
2018-10-21T12:25:12.210Z,25.51
2018-10-21T12:27:42.613Z,27.34
2018-10-21T12:30:13.129Z,27.69
2018-10-21T12:32:43.607Z,26.50
2018-10-21T12:35:14.110Z,25.05
2018-10-21T12:37:44.516Z,23.63
2018-10-21T12:40:14.942Z,21.57
2018-10-21T12:42:45.335Z,22.07
2018-10-21T12:45:15.702Z,22.87
2018-10-21T12:47:46.213Z,21.02
2018-10-21T12:50:16.573Z,22.26
2018-10-21T12:52:47.051Z,21.01
2018-10-21T12:55:17.532Z,21.08
2018-10-21T12:57:47.857Z,19.78
2018-10-21T13:00:18.305Z,20.53
2018-10-21T13:02:48.655Z,20.52
2018-10-21T13:05:19.001Z,20.17
2018-10-21T13:07:49.443Z,21.50
2018-10-21T13:10:19.833Z,21.13
2018-10-21T13:12:50.298Z,23.33
2018-10-21T13:15:20.639Z,23.52
2018-10-21T13:17:51.023Z,23.21
2018-10-21T13:20:21.589Z,22.90
2018-10-21T13:22:52.011Z,22.85
2018-10-21T13:25:22.491Z,23.65
2018-10-21T13:27:52.995Z,25.60
2018-10-21T13:30:23.489Z,24.57
2018-10-21T13:32:53.881Z,24.62
2018-10-21T13:35:24.309Z,26.29
2018-10-21T13:37:54.775Z,25.38
2018-10-21T13:40:25.351Z,24.84
2018-10-21T13:42:55.811Z,26.53
2018-10-21T13:45:26.247Z,27.04
2018-10-21T13:47:59.685Z,26.20
2018-10-21T13:50:30.159Z,24.48
2018-10-21T13:53:00.912Z,23.86
2018-10-21T13:55:31.250Z,25.02
2018-10-21T13:58:01.779Z,26.74
2018-10-21T14:00:32.103Z,26.72
2018-10-21T14:03:02.533Z,26.61
2018-10-21T14:05:33.163Z,27.22
2018-10-21T14:08:03.649Z,28.08
2018-10-21T14:10:34.013Z,28.11
2018-10-21T14:13:04.373Z,28.46
2018-10-21T14:15:34.731Z,28.97
2018-10-21T14:18:05.113Z,29.07
2018-10-21T14:20:35.519Z,28.34
2018-10-21T14:23:05.942Z,28.18
2018-10-21T14:25:36.335Z,28.07
2018-10-21T14:28:06.613Z,27.68
2018-10-21T14:30:36.933Z,28.40
2018-10-21T14:33:07.231Z,27.88
2018-10-21T14:35:37.502Z,29.06
2018-10-21T14:38:07.944Z,28.87
2018-10-21T14:40:38.421Z,28.66
2018-10-21T14:43:09.357Z,28.87
2018-10-21T14:45:39.838Z,27.74
2018-10-21T14:48:10.681Z,26.71
2018-10-21T14:50:41.289Z,27.40
2018-10-21T14:56:20.121Z,26.56
2018-10-21T14:58:56.365Z,25.84
2018-10-21T15:01:27.289Z,28.16
2018-10-21T15:03:57.738Z,29.03
2018-10-21T15:06:34.324Z,28.97
2018-10-21T15:09:11.941Z,30.54
2018-10-21T15:11:48.132Z,30.89
2018-10-21T15:14:33.660Z,30.45
2018-10-21T15:23:39.476Z,34.03
2018-10-21T15:26:12.327Z,34.55
2018-10-21T15:28:43.133Z,33.88
2018-10-21T15:31:13.896Z,33.21
2018-10-21T15:33:44.697Z,33.60
2018-10-21T15:36:20.592Z,35.02
2018-10-21T15:38:56.872Z,35.49
2018-10-21T15:41:27.217Z,35.77
2018-10-21T15:43:57.494Z,35.96
2018-10-21T15:46:27.868Z,36.94
2018-10-21T15:48:58.401Z,36.43
2018-10-21T15:51:28.648Z,36.91
2018-10-21T15:53:59.048Z,37.48
2018-10-21T15:56:29.446Z,39.28
2018-10-21T15:58:59.710Z,39.86
2018-10-21T16:01:30.146Z,41.98
2018-10-21T16:04:00.558Z,42.78
2018-10-21T16:06:30.804Z,43.82
2018-10-21T16:09:01.418Z,44.32
2018-10-21T16:11:31.679Z,45.02
2018-10-21T16:14:02.076Z,45.29
2018-10-21T16:16:32.261Z,45.90
2018-10-21T16:19:02.820Z,46.73
2018-10-21T16:21:33.191Z,47.21
2018-10-21T16:24:03.724Z,47.51
2018-10-21T16:26:34.182Z,48.13
2018-10-21T16:29:04.528Z,48.19
2018-10-21T16:31:34.868Z,49.06
2018-10-21T16:34:05.411Z,49.01
2018-10-21T16:36:36.010Z,49.98
2018-10-21T16:39:08.606Z,50.32
2018-10-21T16:41:38.975Z,50.25
2018-10-21T16:44:09.232Z,52.23
2018-10-21T16:46:39.572Z,53.61
2018-10-21T16:49:09.944Z,53.68
2018-10-21T16:51:40.564Z,54.79
2018-10-21T16:54:11.013Z,55.04
2018-10-21T16:56:41.328Z,56.21
2018-10-21T16:59:11.764Z,56.24
2018-10-21T17:01:42.291Z,55.91
2018-10-21T17:04:12.509Z,57.07
2018-10-21T17:06:42.928Z,57.01
2018-10-21T17:09:14.448Z,57.36
2018-10-21T17:11:45.527Z,59.44
2018-10-21T17:14:15.909Z,59.55
2018-10-21T17:16:46.469Z,60.68
2018-10-21T17:19:19.801Z,62.06
2018-10-21T17:21:50.238Z,62.11
2018-10-21T17:24:20.723Z,63.11
2018-10-21T17:26:51.053Z,62.96
2018-10-21T17:29:21.591Z,63.88
2018-10-21T17:31:51.929Z,64.42
2018-10-21T17:34:22.588Z,62.82
2018-10-21T17:36:52.843Z,63.79
2018-10-21T17:39:23.838Z,63.41
2018-10-21T17:41:54.253Z,63.78
2018-10-21T17:44:24.920Z,64.87
2018-10-21T17:46:55.261Z,65.14
2018-10-21T17:49:25.913Z,64.71
2018-10-21T17:51:56.325Z,64.72
2018-10-21T17:54:26.916Z,67.27
2018-10-21T17:56:59.360Z,67.94
2018-10-21T17:59:30.084Z,67.11
2018-10-21T18:02:00.527Z,67.99
2018-10-21T18:04:30.892Z,71.58
2018-10-21T18:07:01.378Z,69.27
2018-10-21T18:09:31.620Z,69.88
2018-10-21T18:12:02.007Z,71.27
2018-10-21T18:14:32.488Z,73.13
2018-10-21T18:17:03.638Z,73.02
2018-10-21T18:19:33.975Z,71.39
2018-10-21T18:22:04.513Z,71.15
2018-10-21T18:24:34.950Z,70.83
2018-10-21T18:27:05.420Z,70.64
2018-10-21T18:29:35.771Z,70.86
2018-10-21T18:32:06.200Z,72.00
2018-10-21T18:34:36.544Z,71.28
2018-10-21T18:37:07.629Z,73.10
2018-10-21T18:39:38.168Z,73.28
2018-10-21T18:42:08.592Z,74.33
2018-10-21T18:44:39.115Z,73.57
2018-10-21T18:47:09.464Z,75.12
2018-10-21T18:49:40.004Z,75.52
2018-10-21T18:52:10.321Z,75.13
2018-10-21T18:54:40.776Z,75.96
2018-10-21T18:57:11.898Z,76.96
2018-10-21T18:59:44.615Z,75.96
2018-10-21T19:02:15.128Z,75.67
2018-10-21T19:04:45.360Z,75.67
2018-10-21T19:07:16.124Z,76.05
2018-10-21T19:09:48.144Z,76.14
2018-10-21T19:12:18.510Z,76.86
2018-10-21T19:14:49.206Z,76.38
2018-10-21T19:17:19.524Z,77.72
2018-10-21T19:19:50.317Z,77.77
2018-10-21T19:22:20.554Z,77.79
2018-10-21T19:24:50.910Z,78.89
2018-10-21T19:27:22.046Z,78.18
2018-10-21T19:29:53.243Z,78.43
2018-10-21T19:32:23.518Z,78.46
2018-10-21T19:34:53.759Z,78.77
2018-10-21T19:37:23.999Z,79.05
2018-10-21T19:39:54.356Z,79.16
2018-10-21T19:42:24.569Z,80.56
2018-10-21T19:44:54.906Z,81.55
2018-10-21T19:47:25.164Z,80.50
2018-10-21T19:49:55.619Z,80.22
2018-10-21T19:52:25.920Z,80.86
2018-10-21T19:54:56.253Z,80.74
2018-10-21T19:57:26.785Z,81.83
2018-10-21T19:59:57.419Z,81.49
2018-10-21T20:02:27.765Z,80.36
2018-10-21T20:04:57.928Z,81.44
2018-10-21T20:07:28.188Z,80.45
2018-10-21T20:09:58.814Z,82.02
2018-10-21T20:12:29.086Z,80.80
2018-10-21T20:14:59.337Z,81.03
2018-10-21T20:17:29.644Z,81.98
2018-10-21T20:20:00.105Z,81.34
2018-10-21T20:22:30.473Z,81.24
2018-10-21T20:25:00.888Z,82.32
2018-10-21T20:27:31.184Z,81.81
2018-10-21T20:30:01.628Z,83.03
2018-10-21T20:32:31.833Z,82.01
2018-10-21T20:35:02.180Z,81.54
2018-10-21T20:37:32.483Z,82.85
2018-10-21T20:40:02.983Z,82.75
2018-10-21T20:42:33.320Z,82.95
2018-10-21T20:45:03.696Z,82.34
2018-10-21T20:47:33.959Z,83.71
2018-10-21T20:50:04.786Z,85.08
2018-10-21T20:52:35.096Z,85.03
2018-10-21T20:55:05.407Z,84.88
2018-10-21T20:57:35.775Z,85.02
2018-10-21T21:00:06.250Z,84.47
2018-10-21T21:02:36.532Z,85.02
2018-10-21T21:05:08.360Z,84.92
2018-10-21T21:07:38.716Z,84.26
2018-10-21T21:10:11.546Z,84.86
2018-10-21T21:12:41.943Z,85.41
2018-10-21T21:15:12.668Z,85.91
2018-10-21T21:17:43.103Z,85.18
2018-10-21T21:20:13.734Z,86.28
2018-10-21T21:22:44.187Z,86.68
2018-10-21T21:25:14.479Z,86.43
2018-10-21T21:27:44.765Z,87.55
2018-10-21T21:30:14.999Z,86.61
2018-10-21T21:32:45.443Z,87.21
2018-10-21T21:35:15.824Z,87.21
2018-10-21T21:37:46.209Z,87.02
2018-10-21T21:40:16.666Z,86.69
2018-10-21T21:42:46.995Z,86.50
2018-10-21T21:45:17.302Z,87.57
2018-10-21T21:47:47.601Z,88.20
2018-10-21T21:50:18.029Z,87.85
2018-10-21T21:52:48.301Z,89.90
2018-10-21T21:55:18.559Z,90.15
2018-10-21T21:57:49.090Z,89.24
2018-10-21T22:00:19.760Z,89.10
2018-10-21T22:02:50.348Z,90.13
2018-10-21T22:05:20.974Z,90.58
2018-10-21T22:07:51.445Z,90.42
2018-10-21T22:10:21.685Z,89.83
2018-10-21T22:12:51.911Z,89.82
2018-10-21T22:15:22.277Z,89.63
2018-10-21T22:17:52.804Z,90.60
2018-10-21T22:20:23.165Z,91.49
2018-10-21T22:22:53.565Z,92.04
2018-10-21T22:25:24.235Z,91.98
2018-10-21T22:27:54.727Z,91.76
2018-10-21T22:30:24.968Z,91.33
2018-10-21T22:32:55.258Z,91.52
2018-10-21T22:35:25.597Z,92.21
2018-10-21T22:37:55.887Z,92.45
2018-10-21T22:40:26.254Z,93.54
2018-10-21T22:42:56.599Z,92.61
2018-10-21T22:45:27.764Z,91.32
2018-10-21T22:47:58.096Z,91.23
2018-10-21T22:50:28.572Z,92.68
2018-10-21T22:52:58.977Z,91.73
2018-10-21T22:55:29.436Z,92.17
2018-10-21T22:57:59.758Z,93.23
2018-10-21T23:00:30.053Z,93.86
2018-10-21T23:03:00.351Z,93.77
2018-10-21T23:05:30.734Z,94.60
2018-10-21T23:08:01.366Z,94.19
2018-10-21T23:10:31.606Z,94.48
2018-10-21T23:13:02.116Z,95.11
2018-10-21T23:15:34.855Z,95.74
2018-10-21T23:18:05.404Z,95.19
2018-10-21T23:20:35.873Z,95.32
2018-10-21T23:23:06.453Z,95.68
2018-10-21T23:25:36.777Z,96.67
2018-10-21T23:28:07.093Z,96.02
2018-10-21T23:30:37.338Z,97.01
2018-10-21T23:33:07.634Z,96.20
2018-10-21T23:35:38.000Z,96.96
2018-10-21T23:38:08.284Z,97.82
2018-10-21T23:40:38.778Z,97.44
2018-10-21T23:43:09.064Z,96.87
2018-10-21T23:45:39.390Z,97.69
2018-10-21T23:48:09.655Z,97.49
2018-10-21T23:50:39.935Z,97.10
2018-10-21T23:53:10.296Z,97.99
2018-10-21T23:55:40.652Z,97.12
2018-10-21T23:58:11.136Z,97.45
